createdAt,value
2017-09-02T04:10:46.234Z,10.97
2017-09-02T04:13:14.579Z,11.83
2017-09-02T04:15:43.665Z,15.10
2017-09-02T04:18:12.916Z,11.17
2017-09-02T04:20:41.255Z,11.67
2017-09-02T04:23:09.614Z,15.40
2017-09-02T04:25:39.189Z,14.40
2017-09-02T04:28:07.551Z,14.23
2017-09-02T04:30:35.874Z,14.97
2017-09-02T04:33:04.255Z,12.37
2017-09-02T04:35:33.578Z,11.67
2017-09-02T04:38:02.823Z,10.60
2017-09-02T04:40:31.578Z,11.17
2017-09-02T04:43:00.083Z,14.70
2017-09-02T04:45:28.646Z,13.50
2017-09-02T04:47:57.367Z,13.27
2017-09-02T04:50:25.714Z,10.70
2017-09-02T04:52:54.218Z,12.40
2017-09-02T04:55:22.964Z,17.17
2017-09-02T04:57:51.485Z,11.30
2017-09-02T05:00:20.248Z,13.67
2017-09-02T05:02:48.881Z,14.10
2017-09-02T05:05:17.358Z,10.57
2017-09-02T05:07:45.862Z,10.13
2017-09-02T05:10:14.403Z,12.77
2017-09-02T05:12:43.382Z,18.83
2017-09-02T05:15:11.844Z,14.53
2017-09-02T05:17:40.608Z,12.30
2017-09-02T05:20:08.947Z,16.53
2017-09-02T05:22:37.263Z,13.00
2017-09-02T05:25:06.116Z,14.23
2017-09-02T05:27:34.533Z,13.17
2017-09-02T05:30:03.004Z,14.20
2017-09-02T05:32:31.929Z,15.80
2017-09-02T05:35:00.499Z,13.10
2017-09-02T05:37:28.908Z,19.30
2017-09-02T05:39:57.384Z,12.90
2017-09-02T05:42:25.770Z,18.13
2017-09-02T05:44:54.220Z,17.10
2017-09-02T05:47:22.903Z,26.13
2017-09-02T05:49:52.344Z,16.00
2017-09-02T05:52:20.809Z,16.53
2017-09-02T05:54:49.562Z,15.40
2017-09-02T05:57:18.064Z,12.80
2017-09-02T05:59:46.538Z,18.37
2017-09-02T06:02:15.775Z,14.63
2017-09-02T06:04:44.211Z,14.63
2017-09-02T06:07:12.750Z,19.13
2017-09-02T06:09:41.399Z,16.77
2017-09-02T06:12:10.689Z,15.53
2017-09-02T06:14:39.592Z,13.03
2017-09-02T06:17:08.106Z,14.53
2017-09-02T06:19:36.443Z,16.37
2017-09-02T06:22:04.990Z,14.73
2017-09-02T06:24:34.427Z,17.57
2017-09-02T06:27:03.828Z,19.93
2017-09-02T06:29:32.194Z,15.43
2017-09-02T06:32:01.550Z,16.00
2017-09-02T06:34:29.995Z,12.00
2017-09-02T06:36:58.354Z,20.53
2017-09-02T06:39:32.002Z,12.77
2017-09-02T06:42:02.422Z,21.63
2017-09-02T06:44:32.466Z,14.47
2017-09-02T06:47:02.163Z,14.67
2017-09-02T06:49:32.571Z,14.90
2017-09-02T06:52:01.132Z,12.73
2017-09-02T06:54:29.551Z,21.50
2017-09-02T06:56:57.944Z,19.33
2017-09-02T06:59:26.517Z,16.63
2017-09-02T07:01:54.978Z,20.73
2017-09-02T07:04:23.326Z,15.77
2017-09-02T07:06:52.182Z,25.67
2017-09-02T07:09:20.558Z,20.73
2017-09-02T07:11:48.905Z,17.90
2017-09-02T07:14:17.483Z,15.10
2017-09-02T07:16:46.312Z,23.53
2017-09-02T07:19:15.460Z,17.50
2017-09-02T07:21:44.701Z,21.93
2017-09-02T07:24:13.037Z,24.43
2017-09-02T07:26:41.455Z,18.13
2017-09-02T07:29:10.538Z,17.13
2017-09-02T07:31:38.975Z,20.77
2017-09-02T07:34:07.347Z,18.97
2017-09-02T07:36:36.108Z,19.77
2017-09-02T07:39:04.769Z,20.60
2017-09-02T07:41:37.340Z,17.93
2017-09-02T07:44:05.785Z,20.53
2017-09-02T07:46:34.274Z,18.13
2017-09-02T07:49:03.050Z,17.43
2017-09-02T07:51:31.594Z,15.07
2017-09-02T07:54:00.031Z,19.87
2017-09-02T07:56:28.574Z,22.00
2017-09-02T07:58:56.946Z,20.13
2017-09-02T08:01:25.609Z,19.97
2017-09-02T08:03:54.098Z,19.10
2017-09-02T08:06:22.676Z,20.70
2017-09-02T08:08:51.207Z,18.40
2017-09-02T08:11:19.861Z,20.40
2017-09-02T08:13:48.269Z,18.30
2017-09-02T08:16:16.690Z,17.43
2017-09-02T08:18:45.275Z,19.03
2017-09-02T08:21:13.719Z,23.27
2017-09-02T08:23:42.092Z,22.03
2017-09-02T08:26:10.667Z,20.73
2017-09-02T08:28:39.116Z,14.97
2017-09-02T08:31:08.476Z,13.07
2017-09-02T08:33:36.927Z,16.80
2017-09-02T08:36:05.425Z,19.13
2017-09-02T08:38:33.821Z,18.40
2017-09-02T08:41:02.343Z,16.40
2017-09-02T08:43:30.986Z,18.87
2017-09-02T08:45:59.401Z,21.60
2017-09-02T08:48:27.875Z,17.33
2017-09-02T08:50:56.319Z,19.37
2017-09-02T08:53:24.705Z,15.10
2017-09-02T08:55:53.612Z,18.57
2017-09-02T08:58:21.997Z,20.50
2017-09-02T09:00:50.410Z,22.20
2017-09-02T09:03:18.906Z,21.40
2017-09-02T09:05:47.310Z,30.20
2017-09-02T09:08:15.768Z,26.17
2017-09-02T09:10:44.316Z,29.93
2017-09-02T09:13:12.685Z,27.70
2017-09-02T09:15:41.100Z,22.80
2017-09-02T09:18:09.546Z,31.00
2017-09-02T09:20:37.982Z,31.40
2017-09-02T09:23:06.361Z,26.70
2017-09-02T09:25:34.783Z,29.90
2017-09-02T09:28:03.216Z,29.13
2017-09-02T09:30:31.684Z,31.97
2017-09-02T09:33:00.558Z,28.53
2017-09-02T09:35:28.964Z,27.53
2017-09-02T09:37:57.348Z,32.60
2017-09-02T09:40:26.048Z,38.30
2017-09-02T09:42:54.453Z,30.63
2017-09-02T09:45:24.102Z,30.37
2017-09-02T09:47:52.532Z,29.20
2017-09-02T09:50:20.932Z,32.27
2017-09-02T09:52:49.328Z,39.43
2017-09-02T09:55:18.867Z,46.83
2017-09-02T09:57:47.300Z,50.90
2017-09-02T10:00:15.744Z,53.90
2017-09-02T10:02:44.230Z,44.47
2017-09-02T10:05:12.661Z,41.60
2017-09-02T10:07:41.035Z,39.77
2017-09-02T10:10:09.747Z,42.90
2017-09-02T10:12:38.142Z,47.70
2017-09-02T10:15:06.522Z,46.70
2017-09-02T10:17:34.958Z,58.70
2017-09-02T10:20:03.453Z,63.10
2017-09-02T10:22:31.982Z,56.07
2017-09-02T10:25:00.559Z,60.97
2017-09-02T10:27:29.018Z,65.47
2017-09-02T10:29:57.512Z,62.77
2017-09-02T10:32:26.760Z,59.83
2017-09-02T10:34:55.295Z,61.93
2017-09-02T10:37:25.321Z,64.20
2017-09-02T10:39:54.234Z,50.90
2017-09-02T10:42:22.624Z,40.00
2017-09-02T10:44:51.081Z,40.33
2017-09-02T10:47:20.493Z,59.00
2017-09-02T10:49:49.655Z,42.30
2017-09-02T10:52:18.122Z,41.63
2017-09-02T10:54:46.753Z,47.53
2017-09-02T10:57:15.173Z,46.73
2017-09-02T10:59:44.764Z,52.40
2017-09-02T11:02:13.192Z,42.30
2017-09-02T11:04:41.614Z,47.90
2017-09-02T11:07:10.015Z,45.37
2017-09-02T11:09:38.510Z,43.63
2017-09-02T11:12:06.924Z,42.80
2017-09-02T11:14:36.142Z,36.93
2017-09-02T11:17:04.728Z,33.33
2017-09-02T11:19:33.138Z,34.97
2017-09-02T11:22:01.578Z,37.33
2017-09-02T11:24:30.693Z,30.83
2017-09-02T11:26:59.154Z,26.07
2017-09-02T11:29:27.853Z,27.57
2017-09-02T11:31:56.700Z,26.17
2017-09-02T11:34:25.223Z,29.27
2017-09-02T11:36:53.764Z,27.80
2017-09-02T11:39:22.404Z,25.23
2017-09-02T11:41:50.793Z,28.83
2017-09-02T11:44:19.196Z,30.57
2017-09-02T11:46:47.913Z,28.10
2017-09-02T11:49:17.643Z,31.10
2017-09-02T11:51:46.138Z,25.93
2017-09-02T11:54:14.574Z,29.00
2017-09-02T11:56:43.081Z,19.43
2017-09-02T11:59:11.509Z,18.60
2017-09-02T12:01:40.521Z,13.80
2017-09-02T12:04:08.933Z,13.00
2017-09-02T12:06:37.417Z,11.20
2017-09-02T12:09:06.091Z,12.07
2017-09-02T12:11:34.516Z,9.53
2017-09-02T12:14:02.985Z,13.43
2017-09-02T12:16:31.406Z,8.47
2017-09-02T12:18:59.875Z,11.20
2017-09-02T12:21:28.344Z,6.80
2017-09-02T12:23:56.839Z,6.20
2017-09-02T12:26:25.260Z,7.63
2017-09-02T12:28:53.647Z,6.60
2017-09-02T12:31:22.185Z,14.30
2017-09-02T12:33:50.563Z,10.00
2017-09-02T12:36:19.103Z,11.23
2017-09-02T12:38:48.862Z,10.90
2017-09-02T12:41:18.613Z,7.40
2017-09-02T12:43:47.086Z,11.20
2017-09-02T12:46:17.330Z,13.50
2017-09-02T12:48:46.009Z,7.90
2017-09-02T12:51:14.693Z,5.70
2017-09-02T12:53:43.400Z,8.67
2017-09-02T12:56:11.821Z,6.63
2017-09-02T12:58:40.257Z,6.47
2017-09-02T13:01:08.904Z,6.27
2017-09-02T13:03:37.542Z,4.20
2017-09-02T13:06:06.037Z,6.10
2017-09-02T13:08:34.655Z,7.50
2017-09-02T13:11:03.899Z,4.90
2017-09-02T13:13:32.314Z,7.20
2017-09-02T13:16:01.051Z,4.80
2017-09-02T13:18:29.480Z,6.67
2017-09-02T13:20:58.685Z,4.50
2017-09-02T13:23:27.264Z,5.00
2017-09-02T13:25:56.409Z,3.70
2017-09-02T13:28:25.051Z,3.10
2017-09-02T13:30:53.626Z,6.87
2017-09-02T13:33:22.834Z,3.57
2017-09-02T13:35:52.023Z,4.30
2017-09-02T13:38:20.610Z,2.60
2017-09-02T13:40:49.808Z,7.60
2017-09-02T13:43:18.230Z,4.70
2017-09-02T13:45:46.954Z,7.73
2017-09-02T13:48:15.359Z,6.37
2017-09-02T13:50:44.516Z,13.00
2017-09-02T13:53:13.650Z,5.83
2017-09-02T13:55:42.793Z,6.57
2017-09-02T13:58:11.226Z,6.33
2017-09-02T14:00:40.481Z,6.80
2017-09-02T14:03:08.869Z,5.90
2017-09-02T14:05:39.489Z,7.50
2017-09-02T14:08:08.156Z,6.53
2017-09-02T14:10:36.554Z,7.90
2017-09-02T14:13:04.946Z,5.93
2017-09-02T14:15:33.407Z,4.37
2017-09-02T14:18:01.993Z,8.30
2017-09-02T14:20:30.371Z,3.43
2017-09-02T14:22:58.769Z,6.40
2017-09-02T14:25:27.113Z,3.30
2017-09-02T14:27:55.470Z,5.33
2017-09-02T14:30:23.828Z,5.90
2017-09-02T14:32:52.962Z,7.00
2017-09-02T14:35:21.285Z,4.20
2017-09-02T14:37:49.653Z,6.07
2017-09-02T14:40:17.990Z,19.23
2017-09-02T14:42:47.305Z,8.13
2017-09-02T14:45:16.275Z,6.47
2017-09-02T14:47:44.675Z,7.43
2017-09-02T14:50:12.996Z,6.27
2017-09-02T14:52:41.485Z,9.80
2017-09-02T14:55:10.120Z,7.17
2017-09-02T14:57:38.630Z,6.57
2017-09-02T15:00:07.069Z,7.53
2017-09-02T15:02:35.455Z,6.90
2017-09-02T15:05:03.851Z,9.73
2017-09-02T15:07:32.303Z,9.07
2017-09-02T15:10:00.729Z,13.10
2017-09-02T15:12:29.100Z,8.53
2017-09-02T15:14:57.599Z,13.97
2017-09-02T15:17:26.021Z,10.23
2017-09-02T15:19:54.414Z,16.40
2017-09-02T15:22:22.788Z,12.80
2017-09-02T15:24:51.133Z,12.50
2017-09-02T15:27:19.496Z,12.07
2017-09-02T15:29:47.891Z,15.10
2017-09-02T15:32:16.393Z,8.87
2017-09-02T15:34:44.735Z,7.77
2017-09-02T15:37:13.490Z,12.97
2017-09-02T15:39:41.824Z,9.93
2017-09-02T15:42:10.226Z,11.50
2017-09-02T15:44:39.899Z,12.00
2017-09-02T15:47:09.017Z,9.70
2017-09-02T15:49:37.413Z,9.90
2017-09-02T15:52:05.804Z,11.70
2017-09-02T15:54:34.188Z,12.37
2017-09-02T15:57:03.080Z,10.67
2017-09-02T15:59:31.913Z,6.97
2017-09-02T16:02:00.250Z,8.43
2017-09-02T16:04:29.920Z,8.53
2017-09-02T16:06:58.298Z,11.80
2017-09-02T16:09:26.769Z,6.80
2017-09-02T16:11:55.096Z,9.20
2017-09-02T16:14:23.483Z,8.80
2017-09-02T16:16:51.908Z,7.30
2017-09-02T16:19:20.236Z,8.67
2017-09-02T16:21:48.979Z,5.17
2017-09-02T16:24:17.316Z,7.87
2017-09-02T16:26:45.661Z,9.27
2017-09-02T16:29:14.051Z,7.50
2017-09-02T16:31:42.413Z,8.00
2017-09-02T16:34:10.808Z,7.40
2017-09-02T16:36:39.187Z,10.17
2017-09-02T16:39:07.584Z,7.10
2017-09-02T16:41:35.935Z,5.70
2017-09-02T16:44:04.617Z,8.33
2017-09-02T16:46:33.061Z,7.27
2017-09-02T16:49:01.412Z,7.27
2017-09-02T16:51:30.875Z,7.10
2017-09-02T16:53:59.218Z,4.93
2017-09-02T16:56:28.328Z,7.30
2017-09-02T16:58:57.111Z,4.80
2017-09-02T17:01:25.474Z,4.57
2017-09-02T17:03:53.827Z,6.43
2017-09-02T17:06:22.239Z,5.90
2017-09-02T17:08:51.372Z,10.00
2017-09-02T17:11:19.917Z,4.57
2017-09-02T17:13:48.313Z,5.53
2017-09-02T17:16:16.768Z,8.40
2017-09-02T17:18:45.118Z,7.50
2017-09-02T17:21:13.861Z,6.90
2017-09-02T17:23:42.229Z,7.47
2017-09-02T17:26:10.606Z,8.63
2017-09-02T17:28:39.093Z,9.23
2017-09-02T17:31:07.529Z,7.63
2017-09-02T17:33:35.872Z,5.83
2017-09-02T17:36:04.629Z,7.47
2017-09-02T17:38:33.040Z,10.73
2017-09-02T17:41:01.431Z,6.57
2017-09-02T17:43:29.956Z,10.57
2017-09-02T17:45:58.307Z,7.37
2017-09-02T17:48:26.708Z,7.00
2017-09-02T17:50:56.010Z,6.90
2017-09-02T17:53:24.448Z,6.60
2017-09-02T17:55:52.860Z,8.53
2017-09-02T17:58:21.603Z,10.83
2017-09-02T18:00:50.574Z,11.57
2017-09-02T18:03:18.930Z,12.83
2017-09-02T18:05:47.508Z,9.50
2017-09-02T18:08:16.644Z,8.37
2017-09-02T18:10:45.025Z,7.87
2017-09-02T18:13:13.637Z,15.93
2017-09-02T18:15:42.036Z,8.73
2017-09-02T18:18:10.470Z,12.20
2017-09-02T18:20:39.200Z,7.90
2017-09-02T18:23:07.836Z,10.27
2017-09-02T18:25:36.251Z,11.37
2017-09-02T18:28:04.745Z,15.10
2017-09-02T18:30:33.197Z,11.30
2017-09-02T18:33:01.598Z,12.47
2017-09-02T18:35:30.034Z,17.70
2017-09-02T18:43:45.424Z,10.33
2017-09-02T18:46:13.808Z,9.33
2017-09-02T18:48:42.298Z,11.17
2017-09-02T18:51:10.963Z,9.43
2017-09-02T18:53:39.458Z,15.57
2017-09-02T18:56:07.901Z,8.23
2017-09-02T18:58:36.375Z,8.20
2017-09-02T19:01:04.808Z,12.27
2017-09-02T19:03:33.217Z,15.13
2017-09-02T19:06:01.925Z,13.00
2017-09-02T19:08:30.431Z,12.00
2017-09-02T19:10:58.876Z,13.93
2017-09-02T19:13:27.449Z,14.57
2017-09-02T19:15:55.879Z,12.17
2017-09-02T19:18:24.289Z,16.10
2017-09-02T19:20:52.814Z,24.83
2017-09-02T19:23:21.306Z,23.50
2017-09-02T19:25:50.496Z,15.97
2017-09-02T19:28:19.167Z,13.40
2017-09-02T19:30:47.598Z,15.27
2017-09-02T19:33:16.048Z,14.13
2017-09-02T19:35:45.256Z,15.30
2017-09-02T19:38:13.644Z,13.87
2017-09-02T19:40:42.119Z,17.63
2017-09-02T19:43:10.574Z,16.77
2017-09-02T19:45:39.158Z,15.97
2017-09-02T19:48:08.336Z,18.63
2017-09-02T19:50:37.401Z,15.50
2017-09-02T19:53:05.781Z,18.10
2017-09-02T19:55:34.190Z,15.20
2017-09-02T19:58:02.919Z,18.00
2017-09-02T20:00:31.380Z,22.10
2017-09-02T20:02:59.856Z,15.33
2017-09-02T20:05:29.080Z,17.67
2017-09-02T20:07:57.478Z,14.83
2017-09-02T20:10:25.999Z,13.53
2017-09-02T20:12:54.491Z,15.57
2017-09-02T20:15:23.703Z,14.10
2017-09-02T20:17:52.130Z,14.70
2017-09-02T20:20:20.902Z,20.43
2017-09-02T20:22:49.552Z,18.30
2017-09-02T20:25:18.052Z,14.90
2017-09-02T20:27:46.725Z,17.10
2017-09-02T20:30:15.172Z,17.13
2017-09-02T20:32:43.601Z,20.57
2017-09-02T20:35:12.237Z,18.23
2017-09-02T20:37:40.712Z,15.63
2017-09-02T20:40:09.947Z,17.73
2017-09-02T20:42:38.603Z,18.30
2017-09-02T20:45:07.016Z,19.17
2017-09-02T20:47:35.822Z,17.63
2017-09-02T20:50:04.272Z,19.80
2017-09-02T20:52:32.674Z,20.47
2017-09-02T20:55:01.164Z,21.70
2017-09-02T20:57:29.694Z,17.37
2017-09-02T20:59:58.937Z,22.33
2017-09-02T21:02:27.352Z,20.27
2017-09-02T21:04:55.961Z,22.73
2017-09-02T21:07:24.447Z,26.93
2017-09-02T21:09:52.860Z,23.37
2017-09-02T21:12:21.572Z,18.83
2017-09-02T21:14:50.018Z,20.30
2017-09-02T21:17:18.466Z,21.47
2017-09-02T21:19:47.083Z,22.40
2017-09-02T21:22:15.522Z,42.30
2017-09-02T21:24:43.942Z,16.80
2017-09-02T21:27:12.524Z,21.17
2017-09-02T21:29:41.674Z,16.30
2017-09-02T21:32:10.126Z,28.70
2017-09-02T21:34:38.892Z,24.20
2017-09-02T21:37:07.322Z,19.97
2017-09-02T21:39:35.728Z,20.97
2017-09-02T21:42:04.514Z,19.40
2017-09-02T21:44:32.911Z,24.23
2017-09-02T21:47:01.363Z,20.30
2017-09-02T21:49:30.383Z,25.73
2017-09-02T21:51:58.826Z,20.47
2017-09-02T21:54:27.214Z,19.80
2017-09-02T21:56:55.747Z,22.40
2017-09-02T21:59:24.181Z,21.90
2017-09-02T22:01:52.677Z,24.17
2017-09-02T22:04:21.549Z,23.37
2017-09-02T22:06:50.013Z,21.10
2017-09-02T22:09:19.224Z,25.67
2017-09-02T22:11:47.763Z,22.57
2017-09-02T22:14:16.469Z,22.73
2017-09-02T22:16:44.861Z,26.80
2017-09-02T22:19:13.313Z,28.23
2017-09-02T22:21:41.741Z,21.57
2017-09-02T22:24:10.152Z,27.03
2017-09-02T22:26:38.647Z,28.70
2017-09-02T22:29:07.105Z,27.77
2017-09-02T22:31:36.260Z,26.40
2017-09-02T22:34:04.860Z,29.60
2017-09-02T22:36:33.301Z,36.50
2017-09-02T22:39:02.193Z,39.23
2017-09-02T22:41:30.796Z,37.70
2017-09-02T22:43:59.256Z,37.00
2017-09-02T22:46:27.702Z,39.53
2017-09-02T22:48:57.082Z,27.87
2017-09-02T22:51:26.506Z,33.70
2017-09-02T22:53:54.948Z,29.90
2017-09-02T22:56:23.535Z,28.70
2017-09-02T22:58:51.997Z,44.07
2017-09-02T23:01:20.438Z,45.23
2017-09-02T23:03:49.464Z,49.47
2017-09-02T23:06:17.942Z,63.63
2017-09-02T23:08:46.382Z,54.00
2017-09-02T23:11:14.932Z,54.93
2017-09-02T23:13:43.381Z,49.73
2017-09-02T23:16:11.807Z,51.20
2017-09-02T23:18:40.616Z,99.00
2017-09-02T23:21:09.093Z,51.30
2017-09-02T23:23:37.514Z,40.53
2017-09-02T23:26:06.136Z,43.33
2017-09-02T23:28:34.608Z,38.13
2017-09-02T23:31:03.040Z,39.73
2017-09-02T23:33:31.668Z,34.63
2017-09-02T23:36:00.082Z,31.47
2017-09-02T23:38:28.480Z,29.23
2017-09-02T23:40:57.045Z,27.27
2017-09-02T23:43:26.223Z,25.37
2017-09-02T23:45:54.640Z,26.17
2017-09-02T23:48:23.080Z,25.97
2017-09-02T23:50:51.555Z,25.10
2017-09-02T23:53:20.577Z,26.93
2017-09-02T23:55:49.809Z,23.27
2017-09-02T23:58:18.211Z,25.73
